createdAt,value
2018-05-21T15:23:51.782Z,2.43
2018-05-21T15:26:18.076Z,2.23
2018-05-21T15:28:44.163Z,1.90
2018-05-21T15:31:10.998Z,2.03
2018-05-21T15:33:37.290Z,2.10
2018-05-21T15:36:03.424Z,2.10
2018-05-21T15:38:30.282Z,2.60
2018-05-21T15:40:56.411Z,2.00
2018-05-21T15:43:22.558Z,2.03
2018-05-21T15:45:48.718Z,2.13
2018-05-21T15:48:14.831Z,2.00
2018-05-21T15:50:40.887Z,2.17
2018-05-21T15:53:07.029Z,2.67
2018-05-21T15:55:33.127Z,2.50
2018-05-21T15:57:59.182Z,2.20
2018-05-21T16:00:25.274Z,2.00
2018-05-21T16:02:51.562Z,1.83
2018-05-21T16:05:17.733Z,2.20
2018-05-21T16:07:44.118Z,2.50
2018-05-21T16:10:10.216Z,2.37
2018-05-21T16:12:36.351Z,2.70
2018-05-21T16:15:02.438Z,2.50
2018-05-21T16:17:28.607Z,2.23
2018-05-21T16:19:54.683Z,2.27
2018-05-21T16:22:20.791Z,2.43
2018-05-21T16:24:47.750Z,2.63
2018-05-21T16:27:13.815Z,2.67
2018-05-21T16:29:39.874Z,3.10
2018-05-21T16:32:06.766Z,3.30
2018-05-21T16:34:32.838Z,3.17
2018-05-21T16:36:58.890Z,2.73
2018-05-21T16:39:31.986Z,3.00
2018-05-21T16:41:58.043Z,3.10
2018-05-21T16:44:24.941Z,3.27
2018-05-21T16:46:51.083Z,3.50
2018-05-21T16:49:17.134Z,2.63
2018-05-21T16:51:43.227Z,2.80
2018-05-21T16:54:09.314Z,2.93
2018-05-21T16:56:35.389Z,3.10
2018-05-21T16:59:01.531Z,3.53
2018-05-21T17:01:27.663Z,3.63
2018-05-21T17:03:54.078Z,3.20
2018-05-21T17:06:20.185Z,3.30
2018-05-21T17:08:46.458Z,3.40
2018-05-21T17:11:13.364Z,3.50
2018-05-21T17:13:42.869Z,3.70
2018-05-21T17:16:08.936Z,3.60
2018-05-21T17:18:35.099Z,3.03
2018-05-21T17:21:02.119Z,3.70
2018-05-21T17:23:29.344Z,3.37
2018-05-21T17:25:55.454Z,3.17
2018-05-21T17:28:21.600Z,3.17
2018-05-21T17:30:47.824Z,3.93
2018-05-21T17:33:14.059Z,3.50
2018-05-21T17:35:40.387Z,3.30
2018-05-21T17:38:06.643Z,3.30
2018-05-21T17:40:32.723Z,3.63
2018-05-21T17:42:59.035Z,3.63
2018-05-21T17:45:25.295Z,3.50
2018-05-21T17:47:51.365Z,3.73
2018-05-21T17:50:18.234Z,3.60
2018-05-21T17:52:44.521Z,3.53
2018-05-21T17:55:10.699Z,3.50
2018-05-21T17:57:36.819Z,3.50
2018-05-21T18:00:02.942Z,3.50
2018-05-21T18:02:29.148Z,4.00
2018-05-21T18:04:56.022Z,3.77
2018-05-21T18:10:04.470Z,3.70
2018-05-21T18:12:32.651Z,3.73
2018-05-21T18:15:01.637Z,3.50
2018-05-21T18:17:30.693Z,3.70
2018-05-21T18:19:58.906Z,3.47
2018-05-21T18:22:28.274Z,3.70
2018-05-21T18:24:56.487Z,3.83
2018-05-21T18:27:25.474Z,4.00
2018-05-21T18:29:54.456Z,3.80
2018-05-21T18:32:22.692Z,3.90
2018-05-21T18:34:50.890Z,3.80
2018-05-21T18:37:19.114Z,3.83
2018-05-21T18:39:47.399Z,4.10
2018-05-21T18:42:15.682Z,3.60
2018-05-21T18:44:44.770Z,3.63
2018-05-21T18:47:12.991Z,4.10
2018-05-21T18:49:41.183Z,4.07
2018-05-21T18:52:09.525Z,4.20
2018-05-21T18:54:37.711Z,4.30
2018-05-21T18:57:07.302Z,4.20
2018-05-21T18:59:35.547Z,3.70
2018-05-21T19:02:03.770Z,4.20
2018-05-21T19:04:32.031Z,4.27
2018-05-21T19:07:00.255Z,4.10
2018-05-21T19:09:29.334Z,3.97
2018-05-21T19:11:57.574Z,4.30
2018-05-21T19:14:25.816Z,4.57
2018-05-21T19:16:54.862Z,4.50
2018-05-21T19:19:23.951Z,4.40
2018-05-21T19:21:54.774Z,4.50
2018-05-21T19:24:23.039Z,4.20
2018-05-21T19:26:52.071Z,4.47
2018-05-21T19:29:20.316Z,4.47
2018-05-21T19:31:48.551Z,4.90
2018-05-21T19:34:18.534Z,4.80
2018-05-21T19:36:46.746Z,4.80
2018-05-21T19:39:15.039Z,4.83
2018-05-21T19:41:43.271Z,4.90
2018-05-21T19:44:11.472Z,4.50
2018-05-21T19:46:40.438Z,4.57
2018-05-21T19:49:08.649Z,4.80
2018-05-21T19:51:37.604Z,5.03
2018-05-21T19:54:05.922Z,4.67
2018-05-21T19:56:34.146Z,4.67
2018-05-21T19:59:02.363Z,4.93
2018-05-21T20:01:30.596Z,4.87
2018-05-21T20:03:59.075Z,5.13
2018-05-21T20:06:27.304Z,5.17
2018-05-21T20:08:56.330Z,5.07
2018-05-21T20:11:24.606Z,4.80
2018-05-21T20:13:52.956Z,4.60
2018-05-21T20:16:21.567Z,5.17
2018-05-21T20:18:50.537Z,4.83
2018-05-21T20:21:18.764Z,4.73
2018-05-21T20:23:46.963Z,5.37
2018-05-21T20:26:15.183Z,5.00
2018-05-21T20:28:44.148Z,4.70
2018-05-21T20:31:12.381Z,5.33
2018-05-21T20:33:40.781Z,5.17
2018-05-21T20:36:08.990Z,5.17
2018-05-21T20:38:37.968Z,5.53
2018-05-21T20:41:06.244Z,5.37
2018-05-21T20:43:34.601Z,5.10
2018-05-21T20:46:02.893Z,4.97
2018-05-21T20:48:31.212Z,5.40
2018-05-21T20:51:00.313Z,4.90
2018-05-21T20:53:31.011Z,5.43
2018-05-21T20:55:59.541Z,4.80
2018-05-21T20:58:27.810Z,4.77
2018-05-21T21:00:56.772Z,5.07
2018-05-21T21:03:25.062Z,5.17
2018-05-21T21:05:53.422Z,5.60
2018-05-21T21:08:21.635Z,5.53
2018-05-21T21:10:50.630Z,5.50
2018-05-21T21:13:19.742Z,5.87
2018-05-21T21:15:48.325Z,5.00
2018-05-21T21:18:16.538Z,5.20
2018-05-21T21:20:45.233Z,5.30
2018-05-21T21:23:13.495Z,5.03
2018-05-21T21:25:41.748Z,5.40
2018-05-21T21:28:09.945Z,5.00
2018-05-21T21:30:38.207Z,5.67
2018-05-21T21:33:06.418Z,5.70
2018-05-21T21:35:35.170Z,5.30
2018-05-21T21:38:04.179Z,5.30
2018-05-21T21:40:32.423Z,5.20
2018-05-21T21:43:00.679Z,4.73
2018-05-21T21:45:29.638Z,5.27
2018-05-21T21:47:57.910Z,4.73
2018-05-21T21:50:26.139Z,5.07
2018-05-21T21:52:54.455Z,5.10
2018-05-21T21:55:22.655Z,4.93
2018-05-21T21:57:55.459Z,4.87
2018-05-21T22:00:24.518Z,5.20
2018-05-21T22:02:52.711Z,5.00
2018-05-21T22:05:20.996Z,5.13
2018-05-21T22:07:53.134Z,5.07
2018-05-21T22:10:23.306Z,5.00
2018-05-21T22:12:52.287Z,4.90
2018-05-21T22:15:21.360Z,5.00
2018-05-21T22:17:49.567Z,5.20
2018-05-21T22:20:18.602Z,5.03
2018-05-21T22:22:46.806Z,4.90
2018-05-21T22:25:14.997Z,5.10
2018-05-21T22:27:44.042Z,5.13
2018-05-21T22:30:12.251Z,4.93
2018-05-21T22:32:40.434Z,5.03
2018-05-21T22:35:10.182Z,5.30
2018-05-21T22:37:38.530Z,4.97
2018-05-21T22:40:06.756Z,5.10
2018-05-21T22:42:35.397Z,5.10
2018-05-21T22:45:04.378Z,5.40
2018-05-21T22:47:33.394Z,5.27
2018-05-21T22:50:01.654Z,4.93
2018-05-21T22:52:30.631Z,4.67
2018-05-21T22:54:58.918Z,5.40
2018-05-21T22:57:27.883Z,5.33
2018-05-21T22:59:56.126Z,4.80
2018-05-21T23:02:24.346Z,5.03
2018-05-21T23:04:52.592Z,4.80
2018-05-21T23:07:20.798Z,5.37
2018-05-21T23:09:49.098Z,5.03
2018-05-21T23:12:18.070Z,5.13
2018-05-21T23:14:46.463Z,5.13
2018-05-21T23:17:16.258Z,5.27
2018-05-21T23:19:44.451Z,5.03
2018-05-21T23:22:13.466Z,5.67
2018-05-21T23:24:41.671Z,5.20
2018-05-21T23:27:09.927Z,5.30
2018-05-21T23:29:38.159Z,5.50
2018-05-21T23:32:06.370Z,5.40
2018-05-21T23:34:35.394Z,5.83
2018-05-21T23:37:04.227Z,5.40
2018-05-21T23:39:33.209Z,4.90
2018-05-21T23:42:01.457Z,5.03
2018-05-21T23:44:29.624Z,5.50
2018-05-21T23:46:57.911Z,5.40
2018-05-21T23:49:26.226Z,5.20
2018-05-21T23:51:55.276Z,4.80
2018-05-21T23:54:23.585Z,5.43
2018-05-21T23:56:51.784Z,5.37
2018-05-21T23:59:20.863Z,5.50
